createdAt,value
2022-12-22T00:00:27.000Z,9
2022-12-22T00:01:44.000Z,9
2022-12-22T00:03:00.000Z,9
2022-12-22T00:04:16.000Z,9
2022-12-22T00:05:32.000Z,9
2022-12-22T00:06:49.000Z,9
2022-12-22T00:08:05.000Z,9
2022-12-22T00:09:21.000Z,9
2022-12-22T00:10:38.000Z,9
2022-12-22T00:11:54.685Z,9
2022-12-22T00:13:10.000Z,9
2022-12-22T00:14:27.000Z,9
2022-12-22T00:15:42.000Z,9
2022-12-22T00:16:58.000Z,9
2022-12-22T00:18:15.144Z,9
2022-12-22T00:19:31.000Z,9
2022-12-22T00:20:47.000Z,9
2022-12-22T00:22:03.000Z,9
2022-12-22T00:23:20.000Z,9
2022-12-22T00:24:36.000Z,9
2022-12-22T00:25:52.000Z,9
2022-12-22T00:27:08.000Z,9.1
2022-12-22T00:28:25.444Z,9
2022-12-22T00:29:41.000Z,9
2022-12-22T00:30:57.000Z,9
2022-12-22T00:32:13.000Z,9
2022-12-22T00:33:29.000Z,9
2022-12-22T00:34:45.000Z,9
2022-12-22T00:36:01.000Z,9
2022-12-22T00:38:34.000Z,9
2022-12-22T00:39:50.000Z,9
2022-12-22T00:41:07.000Z,9
2022-12-22T00:42:23.000Z,9
2022-12-22T00:43:39.000Z,9
2022-12-22T00:44:55.000Z,9
2022-12-22T00:46:12.000Z,9
2022-12-22T00:47:28.000Z,9
2022-12-22T00:48:43.000Z,9
2022-12-22T00:50:00.000Z,9
2022-12-22T00:51:16.000Z,9
2022-12-22T00:52:32.000Z,9
2022-12-22T00:53:48.000Z,9
2022-12-22T00:55:05.000Z,9
2022-12-22T00:56:21.000Z,9
2022-12-22T00:57:38.077Z,9
2022-12-22T00:58:54.000Z,9
2022-12-22T01:00:10.000Z,9
2022-12-22T01:01:26.000Z,9
2022-12-22T01:02:42.000Z,9
2022-12-22T01:03:59.000Z,9
2022-12-22T01:05:14.000Z,9
2022-12-22T01:06:30.000Z,9
2022-12-22T01:07:47.000Z,9
2022-12-22T01:09:03.000Z,9
2022-12-22T01:10:19.000Z,8.9
2022-12-22T01:11:36.000Z,9
2022-12-22T01:12:52.000Z,9
2022-12-22T01:14:08.000Z,9
2022-12-22T01:15:24.000Z,8.9
2022-12-22T01:16:41.418Z,8.9
2022-12-22T01:17:57.000Z,8.9
2022-12-22T01:19:13.000Z,9
2022-12-22T01:20:30.000Z,8.9
2022-12-22T01:21:45.000Z,8.9
2022-12-22T01:23:01.000Z,8.9
2022-12-22T01:24:17.000Z,9
2022-12-22T01:25:34.000Z,9
2022-12-22T01:26:50.000Z,9
2022-12-22T01:29:23.000Z,9
2022-12-22T01:30:39.000Z,9
2022-12-22T01:31:55.000Z,9
2022-12-22T01:33:11.000Z,9
2022-12-22T01:34:28.000Z,9
2022-12-22T01:35:44.000Z,9
2022-12-22T01:37:00.000Z,9
2022-12-22T01:38:16.000Z,9
2022-12-22T01:39:32.000Z,9
2022-12-22T01:40:48.000Z,9.1
2022-12-22T01:42:05.194Z,9.1
2022-12-22T01:43:21.000Z,9.1
2022-12-22T01:44:37.000Z,9.1
2022-12-22T01:45:53.000Z,9.1
2022-12-22T01:47:10.000Z,9.1
2022-12-22T01:48:26.000Z,9.1
2022-12-22T01:49:42.000Z,9.1
2022-12-22T01:50:58.000Z,9.1
2022-12-22T01:52:15.000Z,9.1
2022-12-22T01:53:31.789Z,9.1
2022-12-22T01:54:46.000Z,9.1
2022-12-22T01:56:03.000Z,9.1
2022-12-22T01:57:19.000Z,9.1
2022-12-22T01:58:35.000Z,9.1
2022-12-22T01:59:51.000Z,9.1
2022-12-22T02:01:08.000Z,9.1
2022-12-22T02:02:24.000Z,9.1
2022-12-22T02:03:40.000Z,9.1
2022-12-22T02:04:57.000Z,9.1
2022-12-22T02:06:13.000Z,9.1
2022-12-22T02:07:29.000Z,9.1
2022-12-22T02:08:46.214Z,9.1
2022-12-22T02:10:02.000Z,9.1
2022-12-22T02:11:17.000Z,9.1
2022-12-22T02:12:34.098Z,9.1
2022-12-22T02:13:50.000Z,9.1
2022-12-22T02:15:06.000Z,9.1
2022-12-22T02:16:22.000Z,9
2022-12-22T02:17:39.000Z,9
2022-12-22T02:20:10.000Z,9
2022-12-22T02:21:25.000Z,9.1
2022-12-22T02:22:42.000Z,9.1
2022-12-22T02:23:58.000Z,9.1
2022-12-22T02:25:14.000Z,9.1
2022-12-22T02:26:31.000Z,9.1
2022-12-22T02:27:47.000Z,9.1
2022-12-22T02:29:03.905Z,9.1
2022-12-22T02:30:19.000Z,9.1
2022-12-22T02:31:36.000Z,9.1
2022-12-22T02:32:52.766Z,9.1
2022-12-22T02:34:08.000Z,9.1
2022-12-22T02:35:25.000Z,9.1
2022-12-22T02:36:41.000Z,9
2022-12-22T02:37:56.000Z,9.1
2022-12-22T02:39:12.000Z,9.1
2022-12-22T02:40:29.000Z,9
2022-12-22T02:41:45.000Z,9
2022-12-22T02:43:01.000Z,9.1
2022-12-22T02:44:18.000Z,9.1
2022-12-22T02:45:34.000Z,9.1
2022-12-22T02:46:50.000Z,9.1
2022-12-22T02:48:06.000Z,9.1
2022-12-22T02:49:23.526Z,9.1
2022-12-22T02:50:39.000Z,9.1
2022-12-22T02:51:55.000Z,9.1
2022-12-22T02:53:12.380Z,9.1
2022-12-22T02:54:27.000Z,9.1
2022-12-22T02:55:43.959Z,9
2022-12-22T02:57:00.264Z,9
2022-12-22T02:58:16.000Z,9
2022-12-22T02:59:32.000Z,9
2022-12-22T03:00:48.000Z,9
2022-12-22T03:02:05.000Z,9
2022-12-22T03:03:21.000Z,9
2022-12-22T03:04:37.000Z,9
2022-12-22T03:05:54.286Z,9
2022-12-22T03:07:10.000Z,9
2022-12-22T03:08:26.000Z,9
2022-12-22T03:09:43.142Z,9
2022-12-22T03:10:59.000Z,9
2022-12-22T03:12:14.000Z,9
2022-12-22T03:13:30.000Z,9
2022-12-22T03:14:47.000Z,9
2022-12-22T03:16:03.000Z,9
2022-12-22T03:17:19.000Z,9
2022-12-22T03:18:35.000Z,9
2022-12-22T03:19:52.585Z,9
2022-12-22T03:21:08.000Z,9
2022-12-22T03:22:25.020Z,9
2022-12-22T03:23:41.000Z,9
2022-12-22T03:24:57.000Z,9
2022-12-22T03:26:13.000Z,9
2022-12-22T03:27:29.000Z,9
2022-12-22T03:28:45.000Z,9
2022-12-22T03:30:01.000Z,9
2022-12-22T03:31:17.000Z,9
2022-12-22T03:32:34.000Z,9
2022-12-22T03:33:50.626Z,9
2022-12-22T03:35:06.000Z,9
2022-12-22T03:36:22.000Z,9
2022-12-22T03:37:39.000Z,9
2022-12-22T03:38:55.000Z,9
2022-12-22T03:40:11.000Z,9
2022-12-22T03:41:28.000Z,9
2022-12-22T03:42:44.000Z,9
2022-12-22T03:44:00.000Z,9
2022-12-22T03:45:16.213Z,9
2022-12-22T03:46:32.000Z,9
2022-12-22T03:47:48.000Z,9
2022-12-22T03:49:04.000Z,9
2022-12-22T03:50:21.000Z,8.9
2022-12-22T03:51:37.000Z,9
2022-12-22T03:52:53.000Z,9
2022-12-22T03:54:09.000Z,9
2022-12-22T03:55:26.000Z,9
2022-12-22T03:56:42.000Z,9
2022-12-22T03:57:58.000Z,9
2022-12-22T03:59:15.000Z,9
2022-12-22T04:00:31.000Z,9
2022-12-22T04:01:46.000Z,9
2022-12-22T04:03:03.000Z,9
2022-12-22T04:04:19.000Z,9
2022-12-22T04:05:35.000Z,9
2022-12-22T04:06:51.000Z,9
2022-12-22T04:08:08.000Z,9
2022-12-22T04:09:24.000Z,9
2022-12-22T04:10:40.000Z,9
2022-12-22T04:11:57.000Z,9
2022-12-22T04:13:13.559Z,9
2022-12-22T04:14:29.000Z,9
2022-12-22T04:15:45.000Z,9.1
2022-12-22T04:17:02.000Z,9.1
2022-12-22T04:18:17.723Z,9
2022-12-22T04:19:33.000Z,9
2022-12-22T04:20:50.000Z,9
2022-12-22T04:22:06.000Z,9
2022-12-22T04:23:22.000Z,9
2022-12-22T04:24:38.000Z,9
2022-12-22T04:25:55.446Z,9
2022-12-22T04:27:11.000Z,9
2022-12-22T04:28:27.000Z,9
2022-12-22T04:29:44.000Z,9
2022-12-22T04:31:00.000Z,9
2022-12-22T04:32:16.000Z,9
2022-12-22T04:33:32.000Z,9
2022-12-22T04:34:48.000Z,9
2022-12-22T04:36:04.000Z,9
2022-12-22T04:37:20.000Z,9
2022-12-22T04:38:37.000Z,9
2022-12-22T04:39:53.000Z,9.1
2022-12-22T04:41:09.000Z,9.1
2022-12-22T04:42:25.000Z,9.1
2022-12-22T04:43:42.000Z,9.1
2022-12-22T04:44:58.000Z,9.1
2022-12-22T04:46:14.000Z,9.1
2022-12-22T04:47:31.000Z,9.1
2022-12-22T04:48:47.000Z,9.1
2022-12-22T04:50:03.000Z,9.1
2022-12-22T04:51:18.000Z,9.1
2022-12-22T04:52:35.000Z,9.1
2022-12-22T04:53:51.000Z,9.1
2022-12-22T04:55:07.000Z,9.1
2022-12-22T04:56:24.000Z,9.1
2022-12-22T04:57:40.000Z,9.1
2022-12-22T04:58:56.000Z,9.1
2022-12-22T05:00:12.000Z,9
2022-12-22T05:01:29.000Z,9
2022-12-22T05:02:45.000Z,9
2022-12-22T05:04:02.113Z,9
2022-12-22T05:05:18.411Z,9.1
2022-12-22T05:06:34.000Z,9
2022-12-22T05:07:49.000Z,9
2022-12-22T05:09:06.000Z,9.1
2022-12-22T05:10:22.000Z,9.1
2022-12-22T05:11:38.000Z,9
2022-12-22T05:12:54.000Z,9.1
2022-12-22T05:14:11.000Z,9.1
2022-12-22T05:15:27.000Z,9.1
2022-12-22T05:16:43.000Z,9.1
2022-12-22T05:18:00.000Z,9.1
2022-12-22T05:19:16.000Z,9.1
2022-12-22T05:20:32.000Z,9.1
2022-12-22T05:21:48.000Z,9
2022-12-22T05:23:05.000Z,9
2022-12-22T05:24:20.000Z,9
2022-12-22T05:25:36.000Z,9
2022-12-22T05:26:53.000Z,9
2022-12-22T05:28:09.000Z,9
2022-12-22T05:29:25.904Z,9
2022-12-22T05:30:41.000Z,9
2022-12-22T05:31:58.000Z,9
2022-12-22T05:33:14.000Z,9
2022-12-22T05:34:30.000Z,9
2022-12-22T05:35:47.000Z,9.1
2022-12-22T05:37:03.000Z,9.1
2022-12-22T05:38:19.000Z,9.1
2022-12-22T05:39:35.000Z,9.1
2022-12-22T05:40:51.000Z,9.1
2022-12-22T05:42:07.773Z,9.1
2022-12-22T05:43:23.000Z,9.1
2022-12-22T05:44:40.000Z,9.1
2022-12-22T05:45:56.000Z,9.2
2022-12-22T05:47:12.000Z,9.1
2022-12-22T05:48:28.000Z,9.2
2022-12-22T05:49:45.000Z,9.2
2022-12-22T05:51:01.000Z,9.2
2022-12-22T05:52:17.000Z,9.2
2022-12-22T05:53:34.000Z,9.2
2022-12-22T05:54:50.651Z,9.2
2022-12-22T05:56:06.000Z,9.2
2022-12-22T05:57:21.000Z,9.2
2022-12-22T05:58:38.526Z,9.2
2022-12-22T05:59:54.000Z,9.2
2022-12-22T06:01:10.000Z,9.2
2022-12-22T06:02:27.000Z,9.2
2022-12-22T06:03:43.000Z,9.2
2022-12-22T06:04:59.000Z,9.2
2022-12-22T06:06:15.000Z,9.2
2022-12-22T06:07:32.528Z,9.2
2022-12-22T06:08:48.000Z,9.2
2022-12-22T06:10:04.000Z,9.3
2022-12-22T06:11:21.000Z,9.2
2022-12-22T06:12:37.000Z,9.3
2022-12-22T06:13:52.000Z,9.3
2022-12-22T06:15:09.000Z,9.3
2022-12-22T06:16:25.000Z,9.3
2022-12-22T06:17:41.603Z,9.3
2022-12-22T06:18:57.000Z,9.3
2022-12-22T06:20:14.000Z,9.3
2022-12-22T06:21:30.000Z,9.3
2022-12-22T06:22:46.000Z,9.3
2022-12-22T06:24:03.000Z,9.3
2022-12-22T06:25:19.000Z,9.3
2022-12-22T06:26:35.869Z,9.3
2022-12-22T06:27:51.000Z,9.3
2022-12-22T06:29:08.000Z,9.3
2022-12-22T06:30:23.000Z,9.3
2022-12-22T06:31:39.000Z,9.3
2022-12-22T06:32:56.000Z,9.4
2022-12-22T06:34:12.000Z,9.4
2022-12-22T06:35:28.000Z,9.4
2022-12-22T06:36:43.000Z,9.4
2022-12-22T06:38:00.000Z,9.4
2022-12-22T06:39:16.769Z,9.4
2022-12-22T06:40:32.000Z,9.4
2022-12-22T06:41:49.000Z,9.4
2022-12-22T06:43:05.000Z,9.4
2022-12-22T06:44:21.000Z,9.4
2022-12-22T06:45:38.220Z,9.4
2022-12-22T06:46:54.000Z,9.4
2022-12-22T06:48:10.000Z,9.4
2022-12-22T06:49:26.000Z,9.4
2022-12-22T06:50:43.000Z,9.4
2022-12-22T06:51:59.000Z,9.4
2022-12-22T06:53:14.000Z,9.4
2022-12-22T06:54:30.000Z,9.4
2022-12-22T06:55:47.000Z,9.4
2022-12-22T06:57:03.000Z,9.4
2022-12-22T06:58:20.120Z,9.4
2022-12-22T06:59:36.000Z,9.4
2022-12-22T07:00:52.674Z,9.4
2022-12-22T07:02:08.000Z,9.4
2022-12-22T07:03:25.000Z,9.4
2022-12-22T07:04:41.000Z,9.4
2022-12-22T07:05:57.000Z,9.4
2022-12-22T07:07:14.088Z,9.4
2022-12-22T07:08:30.000Z,9.4
2022-12-22T07:09:45.000Z,9.4
2022-12-22T07:11:01.000Z,9.4
2022-12-22T07:12:18.250Z,9.4
2022-12-22T07:13:34.000Z,9.4
2022-12-22T07:14:50.000Z,9.4
2022-12-22T07:16:06.000Z,9.4
2022-12-22T07:17:22.000Z,9.4
2022-12-22T07:18:39.000Z,9.4
2022-12-22T07:19:55.000Z,9.4
2022-12-22T07:21:11.000Z,9.4
2022-12-22T07:22:27.000Z,9.4
2022-12-22T07:23:43.000Z,9.4
2022-12-22T07:25:00.000Z,9.4
2022-12-22T07:26:15.000Z,9.4
2022-12-22T07:27:31.000Z,9.4
2022-12-22T07:28:48.175Z,9.4
2022-12-22T07:30:04.000Z,9.4
2022-12-22T07:31:20.000Z,9.4
2022-12-22T07:32:36.000Z,9.4
2022-12-22T07:33:52.000Z,9.5
2022-12-22T07:35:09.351Z,9.4
2022-12-22T07:36:25.000Z,9.4
2022-12-22T07:37:41.000Z,9.4
2022-12-22T07:38:57.000Z,9.4
2022-12-22T07:40:14.000Z,9.4
2022-12-22T07:41:30.000Z,9.4
2022-12-22T07:42:45.000Z,9.4
2022-12-22T07:44:01.000Z,9.4
2022-12-22T07:45:17.000Z,9.4
2022-12-22T07:46:34.000Z,9.4
2022-12-22T07:47:50.000Z,9.4
2022-12-22T07:49:06.933Z,9.4
2022-12-22T07:50:22.000Z,9.4
2022-12-22T07:51:39.000Z,9.4
2022-12-22T07:52:55.000Z,9.4
2022-12-22T07:54:11.000Z,9.4
2022-12-22T07:55:27.000Z,9.4
2022-12-22T07:56:44.000Z,9.4
2022-12-22T07:58:00.000Z,9.4
2022-12-22T07:59:15.000Z,9.4
2022-12-22T08:00:32.056Z,9.4
2022-12-22T08:03:04.000Z,9.4
2022-12-22T08:04:20.000Z,9.4
2022-12-22T08:05:37.000Z,9.4
2022-12-22T08:06:52.000Z,9.4
2022-12-22T08:08:09.000Z,9.4
2022-12-22T08:09:25.000Z,9.4
2022-12-22T08:10:41.681Z,9.4
2022-12-22T08:11:57.000Z,9.4
2022-12-22T08:13:14.000Z,9.4
2022-12-22T08:15:46.000Z,9.4
2022-12-22T08:17:02.122Z,9.4
2022-12-22T08:18:18.000Z,9.5
2022-12-22T08:19:34.000Z,9.4
2022-12-22T08:20:50.000Z,9.5
2022-12-22T08:22:06.000Z,9.5
2022-12-22T08:23:23.000Z,9.5
2022-12-22T08:24:39.000Z,9.5
2022-12-22T08:25:55.000Z,9.5
2022-12-22T08:27:11.968Z,9.5
2022-12-22T08:28:27.000Z,9.5
2022-12-22T08:29:44.000Z,9.5
2022-12-22T08:31:00.000Z,9.5
2022-12-22T08:32:16.000Z,9.5
2022-12-22T08:33:31.000Z,9.5
2022-12-22T08:34:48.000Z,9.5
2022-12-22T08:36:04.000Z,9.5
2022-12-22T08:37:20.000Z,9.5
2022-12-22T08:38:37.100Z,9.5
2022-12-22T08:39:53.000Z,9.5
2022-12-22T08:41:09.550Z,9.5
2022-12-22T08:42:25.000Z,9.5
2022-12-22T08:43:41.000Z,9.5
2022-12-22T08:44:58.000Z,9.5
2022-12-22T08:46:14.000Z,9.5
2022-12-22T08:47:30.000Z,9.5
2022-12-22T08:48:46.000Z,9.4
2022-12-22T08:50:01.000Z,9.5
2022-12-22T08:51:18.000Z,9.5
2022-12-22T08:53:50.000Z,9.5
2022-12-22T08:55:07.137Z,9.5
2022-12-22T08:56:23.000Z,9.5
2022-12-22T08:57:39.000Z,9.5
2022-12-22T08:58:55.000Z,9.5
2022-12-22T09:00:11.000Z,9.4
2022-12-22T09:01:28.000Z,9.4
2022-12-22T09:02:44.000Z,9.5
2022-12-22T09:04:00.000Z,9.5
2022-12-22T09:06:33.000Z,9.5
2022-12-22T09:07:48.000Z,9.6
2022-12-22T09:09:04.000Z,9.6
2022-12-22T09:10:20.000Z,9.5
2022-12-22T09:11:36.000Z,9.5
2022-12-22T09:12:53.000Z,9.6
2022-12-22T09:14:09.000Z,9.6
2022-12-22T09:15:25.000Z,9.6
2022-12-22T09:16:42.134Z,9.6
2022-12-22T09:17:58.000Z,9.6
2022-12-22T09:19:14.000Z,9.6
2022-12-22T09:20:30.000Z,9.6
2022-12-22T09:21:46.000Z,9.6
2022-12-22T09:23:03.000Z,9.6
2022-12-22T09:24:18.000Z,9.6
2022-12-22T09:25:34.000Z,9.6
2022-12-22T09:26:50.000Z,9.6
2022-12-22T09:28:07.000Z,9.6
2022-12-22T09:29:23.000Z,9.7
2022-12-22T09:30:39.000Z,9.7
2022-12-22T09:31:55.000Z,9.7
2022-12-22T09:33:11.000Z,9.7
2022-12-22T09:34:28.000Z,9.7
2022-12-22T09:35:44.000Z,9.7
2022-12-22T09:37:00.000Z,9.7
2022-12-22T09:38:16.000Z,9.7
2022-12-22T09:39:33.000Z,9.7
2022-12-22T09:40:48.000Z,9.7
2022-12-22T09:42:04.000Z,9.8
2022-12-22T09:44:37.000Z,9.8
2022-12-22T09:45:53.000Z,9.9
2022-12-22T09:47:09.000Z,9.9
2022-12-22T09:48:25.000Z,9.9
2022-12-22T09:49:41.000Z,9.9
2022-12-22T09:50:58.000Z,9.9
2022-12-22T09:52:14.000Z,9.9
2022-12-22T09:53:30.000Z,9.8
2022-12-22T09:54:46.000Z,9.8
2022-12-22T09:56:03.000Z,9.8
2022-12-22T09:57:18.000Z,9.9
2022-12-22T09:58:34.000Z,9.9
2022-12-22T09:59:50.000Z,9.9
2022-12-22T10:01:07.000Z,9.9
2022-12-22T10:02:23.000Z,9.9
2022-12-22T10:03:39.000Z,9.9
2022-12-22T10:04:55.000Z,9.9
2022-12-22T10:06:12.000Z,9.9
2022-12-22T10:07:28.000Z,9.9
2022-12-22T10:08:44.000Z,9.9
2022-12-22T10:10:00.000Z,9.9
2022-12-22T10:11:16.000Z,9.9
2022-12-22T10:12:33.000Z,9.8
2022-12-22T10:13:48.000Z,9.8
2022-12-22T10:15:04.000Z,9.9
2022-12-22T10:16:20.000Z,9.9
2022-12-22T10:17:37.394Z,9.9
2022-12-22T10:18:53.000Z,9.9
2022-12-22T10:20:09.000Z,9.9
2022-12-22T10:21:26.115Z,9.9
2022-12-22T10:22:42.000Z,9.9
2022-12-22T10:23:58.000Z,9.9
2022-12-22T10:25:14.000Z,9.9
2022-12-22T10:26:30.000Z,9.9
2022-12-22T10:27:47.000Z,9.9
2022-12-22T10:29:03.000Z,9.9
2022-12-22T10:30:18.000Z,9.9
2022-12-22T10:31:34.000Z,9.9
2022-12-22T10:32:50.000Z,9.9
2022-12-22T10:35:23.000Z,9.9
2022-12-22T10:36:39.000Z,9.9
2022-12-22T10:37:55.000Z,10
2022-12-22T10:39:12.000Z,10
2022-12-22T10:40:28.000Z,10
2022-12-22T10:41:44.000Z,10
2022-12-22T10:43:00.000Z,10
2022-12-22T10:44:17.000Z,10.1
2022-12-22T10:45:33.000Z,10.1
2022-12-22T10:46:48.000Z,10.2
2022-12-22T10:48:04.000Z,10.1
2022-12-22T10:49:21.000Z,10.2
2022-12-22T10:50:37.000Z,10.2
2022-12-22T10:51:52.000Z,10.3
2022-12-22T10:53:08.000Z,10.4
2022-12-22T10:54:24.000Z,11.5
2022-12-22T10:55:41.000Z,12.6
2022-12-22T10:56:57.000Z,13.1
2022-12-22T10:58:13.000Z,12.9
2022-12-22T10:59:29.000Z,13.2
2022-12-22T11:00:46.000Z,13.2
2022-12-22T11:02:02.000Z,13.2
2022-12-22T11:03:18.000Z,12.8
2022-12-22T11:04:34.000Z,12.5
2022-12-22T11:05:51.323Z,12.4
2022-12-22T11:07:07.541Z,12.8
2022-12-22T11:08:22.798Z,13.1
2022-12-22T11:09:38.000Z,13.8
2022-12-22T11:10:55.000Z,14
2022-12-22T11:13:27.000Z,14.8
2022-12-22T11:14:43.000Z,14.2
2022-12-22T11:15:59.000Z,13.4
2022-12-22T11:17:16.000Z,12.9
2022-12-22T11:18:32.000Z,12
2022-12-22T11:19:48.000Z,11.8
2022-12-22T11:21:04.000Z,11.8
2022-12-22T11:22:21.347Z,11.6
2022-12-22T11:23:37.000Z,11.4
2022-12-22T11:24:52.000Z,11.3
2022-12-22T11:26:08.000Z,11.2
2022-12-22T11:27:25.000Z,11.1
2022-12-22T11:28:41.000Z,11.1
2022-12-22T11:29:57.000Z,11
2022-12-22T11:31:13.000Z,11
2022-12-22T11:32:29.000Z,11
2022-12-22T11:33:46.000Z,11.2
2022-12-22T11:35:02.000Z,11.2
2022-12-22T11:36:18.000Z,11.1
2022-12-22T11:37:34.000Z,11.1
2022-12-22T11:38:51.000Z,11.2
2022-12-22T11:40:07.000Z,11.2
2022-12-22T11:41:22.000Z,11.1
2022-12-22T11:42:38.000Z,11.1
2022-12-22T11:43:55.000Z,11.1
2022-12-22T11:45:11.000Z,10.9
2022-12-22T11:46:27.000Z,10.9
2022-12-22T11:47:43.000Z,10.9
2022-12-22T11:49:00.000Z,10.8
2022-12-22T11:50:16.000Z,10.9
2022-12-22T11:51:32.000Z,10.9
2022-12-22T11:52:48.000Z,10.9
2022-12-22T11:54:04.000Z,11
2022-12-22T11:55:21.000Z,11
2022-12-22T11:56:37.000Z,10.9
2022-12-22T11:57:52.000Z,10.9
2022-12-22T11:59:08.000Z,10.6
2022-12-22T12:00:25.000Z,10.6
2022-12-22T12:01:41.000Z,10.7
2022-12-22T12:04:13.000Z,10.7
2022-12-22T12:05:30.000Z,10.7
2022-12-22T12:06:46.000Z,10.8
2022-12-22T12:08:02.000Z,10.6
2022-12-22T12:09:18.000Z,10.5
2022-12-22T12:10:35.000Z,10.5
2022-12-22T12:11:51.000Z,10.5
2022-12-22T12:13:07.000Z,10.5
2022-12-22T12:14:22.000Z,10.6
2022-12-22T12:15:38.000Z,10.6
2022-12-22T12:16:55.000Z,10.7
2022-12-22T12:18:11.000Z,10.7
2022-12-22T12:19:27.000Z,10.7
2022-12-22T12:20:43.000Z,10.8
2022-12-22T12:22:00.000Z,10.8
2022-12-22T12:23:16.000Z,10.8
2022-12-22T12:24:32.000Z,10.7
2022-12-22T12:25:48.000Z,10.7
2022-12-22T12:27:05.325Z,10.7
2022-12-22T12:28:21.000Z,10.7
2022-12-22T12:29:37.000Z,10.8
2022-12-22T12:30:52.000Z,10.7
2022-12-22T12:32:09.000Z,10.7
2022-12-22T12:33:25.000Z,10.6
2022-12-22T12:34:41.000Z,10.5
2022-12-22T12:35:57.000Z,10.6
2022-12-22T12:37:13.000Z,10.7
2022-12-22T12:38:30.000Z,10.7
2022-12-22T12:39:46.000Z,10.7
2022-12-22T12:41:02.000Z,10.6
2022-12-22T12:42:18.000Z,10.6
2022-12-22T12:43:35.000Z,10.6
2022-12-22T12:44:51.000Z,10.5
2022-12-22T12:46:07.000Z,10.6
2022-12-22T12:47:22.000Z,10.6
2022-12-22T12:48:39.000Z,10.6
2022-12-22T12:51:11.000Z,10.6
2022-12-22T12:52:27.000Z,10.7
2022-12-22T12:55:00.000Z,10.7
2022-12-22T12:56:16.000Z,10.7
2022-12-22T12:57:32.000Z,10.7
2022-12-22T12:58:48.000Z,10.7
2022-12-22T13:00:05.000Z,10.8
2022-12-22T13:01:21.000Z,10.7
2022-12-22T13:02:37.000Z,10.7
2022-12-22T13:03:52.000Z,10.6
2022-12-22T13:05:09.366Z,10.6
2022-12-22T13:06:25.000Z,10.6
2022-12-22T13:07:41.000Z,10.6
2022-12-22T13:08:57.000Z,10.6
2022-12-22T13:10:14.000Z,10.6
2022-12-22T13:11:30.000Z,10.7
2022-12-22T13:12:46.000Z,10.7
2022-12-22T13:14:02.000Z,10.7
2022-12-22T13:15:18.000Z,10.6
2022-12-22T13:16:35.000Z,10.6
2022-12-22T13:17:51.695Z,10.6
2022-12-22T13:19:07.950Z,10.6
2022-12-22T13:20:22.000Z,10.6
2022-12-22T13:21:39.000Z,10.6
2022-12-22T13:22:55.000Z,10.6
2022-12-22T13:24:11.000Z,10.6
2022-12-22T13:25:27.000Z,10.6
2022-12-22T13:26:44.354Z,10.6
2022-12-22T13:28:00.000Z,10.6
2022-12-22T13:29:16.000Z,10.5
2022-12-22T13:30:32.000Z,10.5
2022-12-22T13:31:49.000Z,10.5
2022-12-22T13:33:05.000Z,10.5
2022-12-22T13:34:21.000Z,10.5
2022-12-22T13:35:38.010Z,10.5
2022-12-22T13:36:52.000Z,10.4
2022-12-22T13:38:09.000Z,10.4
2022-12-22T13:39:25.000Z,10.5
2022-12-22T13:40:41.000Z,10.4
2022-12-22T13:41:57.000Z,10.4
2022-12-22T13:43:14.000Z,10.4
2022-12-22T13:45:46.000Z,10.4
2022-12-22T13:47:02.000Z,10.3
2022-12-22T13:48:19.000Z,10.3
2022-12-22T13:49:35.000Z,10.3
2022-12-22T13:50:51.000Z,10.3
2022-12-22T13:52:07.000Z,10.3
2022-12-22T13:53:23.000Z,10.3
2022-12-22T13:54:39.000Z,10.3
2022-12-22T13:55:55.000Z,10.3
2022-12-22T13:57:11.000Z,10.3
2022-12-22T13:58:27.000Z,10.3
2022-12-22T13:59:44.000Z,10.2
2022-12-22T14:01:00.000Z,10.2
2022-12-22T14:02:16.000Z,10.2
2022-12-22T14:03:33.175Z,10.2
2022-12-22T14:04:49.000Z,10.2
2022-12-22T14:06:05.000Z,10.2
2022-12-22T14:07:21.000Z,10.3
2022-12-22T14:08:37.000Z,10.3
2022-12-22T14:09:53.000Z,10.3
2022-12-22T14:11:09.000Z,10.3
2022-12-22T14:12:25.000Z,10.3
2022-12-22T14:13:41.000Z,10.3
2022-12-22T14:14:58.000Z,10.3
2022-12-22T14:16:14.000Z,10.3
2022-12-22T14:17:30.000Z,10.3
2022-12-22T14:18:46.000Z,10.3
2022-12-22T14:20:02.000Z,10.3
2022-12-22T14:21:19.000Z,10.3
2022-12-22T14:23:51.000Z,10.2
2022-12-22T14:25:07.000Z,10.2
2022-12-22T14:26:23.000Z,10.2
2022-12-22T14:27:39.611Z,10.2
2022-12-22T14:28:55.000Z,10.1
2022-12-22T14:30:11.000Z,10.1
2022-12-22T14:31:28.000Z,10.1
2022-12-22T14:32:44.000Z,10.1
2022-12-22T14:34:00.000Z,10.1
2022-12-22T14:35:16.000Z,10.1
2022-12-22T14:36:33.000Z,10.1
2022-12-22T14:37:49.000Z,10.1
2022-12-22T14:39:05.748Z,10.1
2022-12-22T14:40:21.000Z,10.1
2022-12-22T14:41:37.000Z,10.1
2022-12-22T14:42:53.000Z,10.1
2022-12-22T14:44:09.000Z,10.1
2022-12-22T14:45:25.000Z,10.1
2022-12-22T14:46:41.000Z,10.1
2022-12-22T14:47:58.000Z,10.1
2022-12-22T14:49:14.000Z,10.1
2022-12-22T14:50:30.000Z,10.1
2022-12-22T14:51:46.000Z,10.1
2022-12-22T14:53:03.000Z,10.1
2022-12-22T14:54:19.000Z,10.1
2022-12-22T14:55:35.000Z,10
2022-12-22T14:56:51.000Z,10
2022-12-22T14:58:07.000Z,9.9
2022-12-22T14:59:23.000Z,10
2022-12-22T15:00:39.000Z,9.9
2022-12-22T15:01:55.000Z,9.9
2022-12-22T15:03:11.000Z,9.9
2022-12-22T15:04:28.000Z,9.9
2022-12-22T15:05:44.000Z,9.9
2022-12-22T15:06:59.000Z,9.8
2022-12-22T15:08:15.000Z,9.8
2022-12-22T15:09:32.000Z,9.8
2022-12-22T15:10:48.000Z,9.7
2022-12-22T15:12:04.000Z,9.7
2022-12-22T15:14:37.330Z,9.7
2022-12-22T15:15:53.000Z,9.7
2022-12-22T15:17:09.768Z,9.7
2022-12-22T15:18:25.000Z,9.7
2022-12-22T15:19:41.000Z,9.6
2022-12-22T15:20:57.000Z,9.6
2022-12-22T15:22:13.000Z,9.6
2022-12-22T15:23:29.000Z,9.6
2022-12-22T15:24:46.000Z,9.6
2022-12-22T15:26:02.319Z,9.5
2022-12-22T15:27:18.000Z,9.5
2022-12-22T15:28:33.000Z,9.5
2022-12-22T15:29:49.000Z,9.5
2022-12-22T15:31:05.000Z,9.4
2022-12-22T15:32:21.000Z,9.4
2022-12-22T15:33:37.000Z,9.4
2022-12-22T15:34:53.000Z,9.4
2022-12-22T15:36:10.000Z,9.3
2022-12-22T15:37:26.000Z,9.4
2022-12-22T15:38:42.000Z,9.4
2022-12-22T15:39:58.000Z,9.4
2022-12-22T15:41:15.000Z,9.4
2022-12-22T15:42:31.000Z,9.4
2022-12-22T15:43:47.000Z,9.4
2022-12-22T15:45:04.110Z,9.4
2022-12-22T15:46:19.000Z,9.4
2022-12-22T15:47:35.000Z,9.4
2022-12-22T15:48:51.000Z,9.4
2022-12-22T15:50:07.000Z,9.4
2022-12-22T15:52:40.530Z,9.4
2022-12-22T15:53:56.000Z,9.3
2022-12-22T15:55:12.000Z,9.3
2022-12-22T15:56:29.000Z,9.3
2022-12-22T15:57:45.000Z,9.3
2022-12-22T15:59:01.000Z,9.3
2022-12-22T16:00:18.144Z,9.3
2022-12-22T16:01:34.000Z,9.3
2022-12-22T16:02:49.000Z,9.3
2022-12-22T16:04:06.011Z,9.3
2022-12-22T16:05:22.000Z,9.3
2022-12-22T16:06:38.000Z,9.3
2022-12-22T16:07:54.000Z,9.3
2022-12-22T16:09:10.000Z,9.2
2022-12-22T16:10:27.000Z,9.2
2022-12-22T16:11:43.000Z,9.2
2022-12-22T16:12:59.000Z,9.2
2022-12-22T16:14:16.000Z,9.1
2022-12-22T16:15:32.000Z,9.1
2022-12-22T16:16:48.000Z,9.1
2022-12-22T16:18:04.000Z,9.1
2022-12-22T16:19:20.000Z,9.1
2022-12-22T16:20:36.000Z,9.1
2022-12-22T16:21:52.000Z,9.1
2022-12-22T16:23:09.000Z,9.1
2022-12-22T16:24:25.613Z,9.1
2022-12-22T16:25:41.926Z,9.1
2022-12-22T16:26:57.000Z,9.1
2022-12-22T16:28:14.000Z,9
2022-12-22T16:29:30.000Z,9.1
2022-12-22T16:30:46.000Z,9.1
2022-12-22T16:32:03.000Z,9.1
2022-12-22T16:33:19.000Z,9.1
2022-12-22T16:34:35.000Z,9.1
2022-12-22T16:35:50.000Z,9.1
2022-12-22T16:37:07.000Z,9.1
2022-12-22T16:38:23.000Z,9
2022-12-22T16:39:39.000Z,9
2022-12-22T16:40:56.628Z,9
2022-12-22T16:43:28.000Z,9
2022-12-22T16:47:17.000Z,9
2022-12-22T16:48:33.000Z,9
2022-12-22T16:49:50.000Z,9
2022-12-22T16:51:06.674Z,9
2022-12-22T16:52:21.000Z,9
2022-12-22T16:53:38.000Z,9
2022-12-22T16:54:54.000Z,9
2022-12-22T16:56:10.000Z,9
2022-12-22T16:57:26.000Z,9
2022-12-22T16:58:43.426Z,9
2022-12-22T16:59:59.000Z,9
2022-12-22T17:01:15.000Z,9.1
2022-12-22T17:02:32.000Z,9.1
2022-12-22T17:03:48.000Z,9.1
2022-12-22T17:05:04.000Z,9.1
2022-12-22T17:06:20.000Z,9.1
2022-12-22T17:07:36.000Z,9
2022-12-22T17:08:51.000Z,9
2022-12-22T17:10:07.000Z,9
2022-12-22T17:11:24.000Z,8.9
2022-12-22T17:12:40.000Z,8.9
2022-12-22T17:13:56.908Z,8.9
2022-12-22T17:15:11.000Z,8.9
2022-12-22T17:16:27.000Z,8.9
2022-12-22T17:17:43.000Z,8.9
2022-12-22T17:18:59.000Z,9
2022-12-22T17:20:16.000Z,8.9
2022-12-22T17:21:32.000Z,8.9
2022-12-22T17:22:48.991Z,8.9
2022-12-22T17:24:05.000Z,8.9
2022-12-22T17:25:21.000Z,9
2022-12-22T17:26:37.000Z,9
2022-12-22T17:27:54.296Z,9
2022-12-22T17:29:10.000Z,9
2022-12-22T17:30:26.000Z,9
2022-12-22T17:31:42.000Z,9
2022-12-22T17:34:14.000Z,8.9
2022-12-22T17:35:30.000Z,8.9
2022-12-22T17:36:46.000Z,8.9
2022-12-22T17:38:03.000Z,8.9
2022-12-22T17:39:19.000Z,8.9
2022-12-22T17:40:35.000Z,8.9
2022-12-22T17:41:52.000Z,8.9
2022-12-22T17:43:08.000Z,8.9
2022-12-22T17:44:24.887Z,8.9
2022-12-22T17:45:40.000Z,8.9
2022-12-22T17:46:57.000Z,8.8
2022-12-22T17:48:13.000Z,8.8
2022-12-22T17:49:28.000Z,8.8
2022-12-22T17:50:45.000Z,8.8
2022-12-22T17:52:01.000Z,8.7
2022-12-22T17:53:17.000Z,8.7
2022-12-22T17:54:34.175Z,8.8
2022-12-22T17:55:50.000Z,8.8
2022-12-22T17:57:06.000Z,8.7
2022-12-22T17:58:22.000Z,8.7
2022-12-22T17:59:39.000Z,8.6
2022-12-22T18:00:55.000Z,8.6
2022-12-22T18:02:11.000Z,8.7
2022-12-22T18:03:27.000Z,8.7
2022-12-22T18:04:44.000Z,8.7